Map

Track Data

SID SEASON NUMBER BASIN SUBBASIN NAME ISO_TIME NATURE LAT LON WMO_WIND WMO_PRES WMO_AGENCY TRACK_TYPE DIST2LAND LANDFALL IFLAG USA_AGENCY USA_ATCF_ID USA_LAT USA_LON USA_RECORD USA_STATUS USA_WIND USA_PRES USA_SSHS USA_R34_NE USA_R34_SE USA_R34_SW USA_R34_NW USA_R50_NE USA_R50_SE USA_R50_SW USA_R50_NW USA_R64_NE USA_R64_SE USA_R64_SW USA_R64_NW USA_POCI USA_ROCI USA_RMW USA_EYE TOKYO_LAT TOKYO_LON TOKYO_GRADE TOKYO_WIND TOKYO_PRES TOKYO_R50_DIR TOKYO_R50_LONG TOKYO_R50_SHORT TOKYO_R30_DIR TOKYO_R30_LONG TOKYO_R30_SHORT TOKYO_LAND CMA_LAT CMA_LON CMA_CAT CMA_WIND CMA_PRES HKO_LAT HKO_LON HKO_CAT HKO_WIND HKO_PRES NEWDELHI_LAT NEWDELHI_LON NEWDELHI_GRADE NEWDELHI_WIND NEWDELHI_PRES NEWDELHI_CI NEWDELHI_DP NEWDELHI_POCI REUNION_LAT REUNION_LON REUNION_TYPE REUNION_WIND REUNION_PRES REUNION_TNUM REUNION_CI REUNION_RMW REUNION_R34_NE REUNION_R34_SE REUNION_R34_SW REUNION_R34_NW REUNION_R50_NE REUNION_R50_SE REUNION_R50_SW REUNION_R50_NW REUNION_R64_NE REUNION_R64_SE REUNION_R64_SW REUNION_R64_NW BOM_LAT BOM_LON BOM_TYPE BOM_WIND BOM_PRES BOM_TNUM BOM_CI BOM_RMW BOM_R34_NE BOM_R34_SE BOM_R34_SW BOM_R34_NW BOM_R50_NE BOM_R50_SE BOM_R50_SW BOM_R50_NW BOM_R64_NE BOM_R64_SE BOM_R64_SW BOM_R64_NW BOM_ROCI BOM_POCI BOM_EYE BOM_POS_METHOD BOM_PRES_METHOD NADI_LAT NADI_LON NADI_CAT NADI_WIND NADI_PRES WELLINGTON_LAT WELLINGTON_LON WELLINGTON_WIND WELLINGTON_PRES DS824_LAT DS824_LON DS824_STAGE DS824_WIND DS824_PRES TD9636_LAT TD9636_LON TD9636_STAGE TD9636_WIND TD9636_PRES TD9635_LAT TD9635_LON TD9635_WIND TD9635_PRES TD9635_ROCI NEUMANN_LAT NEUMANN_LON NEUMANN_CLASS NEUMANN_WIND NEUMANN_PRES MLC_LAT MLC_LON MLC_CLASS MLC_WIND MLC_PRES USA_GUST BOM_GUST BOM_GUST_PER REUNION_GUST REUNION_GUST_PER USA_SEAHGT USA_SEARAD_NE USA_SEARAD_SE USA_SEARAD_SW USA_SEARAD_NW STORM_SPEED STORM_DIR
1904248N10150 1904 32 WP MM NOT_NAMED 1904-09-03 16:00:00 NR 10.0000 150.000 main 1386 1383 __________O___ -1 10.0000 150.000 7 3 257
1904248N10150 1904 32 WP MM NOT_NAMED 1904-09-03 18:00:00 NR 9.97662 149.890 main 1383 1368 __________P___ -1 9.97662 149.890 7 4 259
1904248N10150 1904 32 WP MM NOT_NAMED 1904-09-03 21:00:00 NR 9.94409 149.698 main 1368 1362 __________P___ -1 9.94409 149.698 7 5 263
1904248N10150 1904 32 WP MM NOT_NAMED 1904-09-04 00:00:00 NR 9.91807 149.435 main 1362 1357 __________P___ -1 9.91807 149.435 7 6 266
1904248N10150 1904 32 WP MM NOT_NAMED 1904-09-04 03:00:00 NR 9.90234 149.058 main 1357 1354 __________P___ -1 9.90234 149.058 7 8 268
1904248N10150 1904 32 WP MM NOT_NAMED 1904-09-04 04:00:00 NR 9.90000 148.900 main 1354 1350 __________O___ -1 9.90000 148.900 7 10 270
1904248N10150 1904 32 WP MM NOT_NAMED 1904-09-04 06:00:00 NR 9.90022 148.530 main 1350 1345 __________P___ -1 9.90022 148.530 7 12 271
1904248N10150 1904 32 WP MM NOT_NAMED 1904-09-04 09:00:00 NR 9.91284 147.861 main 1345 1344 __________P___ -1 9.91284 147.861 7 14 272
1904248N10150 1904 32 WP MM NOT_NAMED 1904-09-04 12:00:00 NR 9.94018 147.096 main 1344 1344 __________P___ -1 9.94018 147.096 7 16 273
1904248N10150 1904 32 WP MM NOT_NAMED 1904-09-04 15:00:00 NR 9.98248 146.277 main 1356 1356 __________P___ -1 9.98248 146.277 7 16 273
1904248N10150 1904 32 WP MM NOT_NAMED 1904-09-04 16:00:00 NR 10.0000 146.000 main 1357 1357 __________O___ -1 10.0000 146.000 7 16 274
1904248N10150 1904 32 WP MM NOT_NAMED 1904-09-04 18:00:00 NR 10.0332 145.470 main 1361 1362 __________P___ -1 10.0332 145.470 7 16 274
1904248N10150 1904 32 WP MM NOT_NAMED 1904-09-04 21:00:00 NR 10.0956 144.650 main 1383 1384 __________P___ -1 10.0956 144.650 7 16 275
1904248N10150 1904 32 WP MM NOT_NAMED 1904-09-05 00:00:00 NR 10.1731 143.814 main 1412 1412 __________P___ -1 10.1731 143.814 7 17 276
1904248N10150 1904 32 WP MM NOT_NAMED 1904-09-05 03:00:00 NR 10.2657 142.976 main 1435 1423 __________P___ -1 10.2657 142.976 7 17 277
1904248N10150 1904 32 WP MM NOT_NAMED 1904-09-05 04:00:00 NR 10.3000 142.700 main 1423 1408 __________O___ -1 10.3000 142.700 7 16 277
1904248N10150 1904 32 WP MM NOT_NAMED 1904-09-05 06:00:00 NR 10.3663 142.153 main 1415 1396 __________P___ -1 10.3663 142.153 7 16 278
1904248N10150 1904 32 WP MM NOT_NAMED 1904-09-05 09:00:00 NR 10.4786 141.339 main 1398 1375 __________P___ -1 10.4786 141.339 7 16 279
1904248N10150 1904 32 WP MM NOT_NAMED 1904-09-05 12:00:00 NR 10.6062 140.537 main 1375 1358 __________P___ -1 10.6062 140.537 7 16 280
1904248N10150 1904 32 WP MM NOT_NAMED 1904-09-05 15:00:00 NR 10.7490 139.755 main 1358 1358 __________P___ -1 10.7490 139.755 7 16 281
1904248N10150 1904 32 WP MM NOT_NAMED 1904-09-05 16:00:00 NR 10.8000 139.500 main 1358 1348 __________O___ -1 10.8000 139.500 7 15 281
1904248N10150 1904 32 WP MM NOT_NAMED 1904-09-05 18:00:00 NR 10.8943 138.992 main 1353 1326 __________P___ -1 10.8943 138.992 7 15 281
1904248N10150 1904 32 WP MM NOT_NAMED 1904-09-05 21:00:00 NR 11.0486 138.248 main 1326 1256 __________P___ -1 11.0486 138.248 7 15 283
1904248N10150 1904 32 WP MM NOT_NAMED 1904-09-06 00:00:00 NR 11.2236 137.526 main 1256 1186 __________P___ -1 11.2236 137.526 7 14 285
1904248N10150 1904 32 WP MM NOT_NAMED 1904-09-06 03:00:00 NR 11.4256 136.828 main 1186 1167 __________P___ -1 11.4256 136.828 7 14 287
1904248N10150 1904 32 WP MM NOT_NAMED 1904-09-06 04:00:00 NR 11.5000 136.600 main 1167 1126 __________O___ -1 11.5000 136.600 7 14 289
1904248N10150 1904 32 WP MM NOT_NAMED 1904-09-06 06:00:00 NR 11.6572 136.157 main 1129 1061 __________P___ -1 11.6572 136.157 7 14 291
1904248N10150 1904 32 WP MM NOT_NAMED 1904-09-06 09:00:00 NR 11.9187 135.512 main 1061 1000 __________P___ -1 11.9187 135.512 7 14 293
1904248N10150 1904 32 WP MM NOT_NAMED 1904-09-06 12:00:00 NR 12.2026 134.874 main 1000 930 __________P___ -1 12.2026 134.874 7 14 295
1904248N10150 1904 32 WP MM NOT_NAMED 1904-09-06 15:00:00 NR 12.4997 134.223 main 930 910 __________P___ -1 12.4997 134.223 7 14 295
1904248N10150 1904 32 WP MM NOT_NAMED 1904-09-06 16:00:00 NR 12.6000 134.000 main 910 862 __________O___ -1 12.6000 134.000 7 15 295
1904248N10150 1904 32 WP MM NOT_NAMED 1904-09-06 18:00:00 NR 12.8095 133.550 main 862 807 __________P___ -1 12.8095 133.550 7 15 295
1904248N10150 1904 32 WP MM NOT_NAMED 1904-09-06 21:00:00 NR 13.1305 132.855 main 807 728 __________P___ -1 13.1305 132.855 7 15 295
1904248N10150 1904 32 WP MM NOT_NAMED 1904-09-07 00:00:00 NR 13.4408 132.130 main 728 661 __________P___ -1 13.4408 132.130 7 16 292
1904248N10150 1904 32 WP MM NOT_NAMED 1904-09-07 03:00:00 NR 13.7184 131.365 main 661 632 __________P___ -1 13.7184 131.365 7 16 290
1904248N10150 1904 32 WP MM NOT_NAMED 1904-09-07 04:00:00 NR 13.8000 131.100 main 632 574 __________O___ -1 13.8000 131.100 7 17 286
1904248N10150 1904 32 WP MM NOT_NAMED 1904-09-07 06:00:00 NR 13.9422 130.543 main 574 502 __________P___ -1 13.9422 130.543 7 17 283
1904248N10150 1904 32 WP MM NOT_NAMED 1904-09-07 09:00:00 NR 14.1178 129.669 main 502 421 __________P___ -1 14.1178 129.669 7 17 280
1904248N10150 1904 32 WP MM NOT_NAMED 1904-09-07 12:00:00 NR 14.2563 128.775 main 427 358 __________P___ -1 14.2563 128.775 7 17 278
1904248N10150 1904 32 WP MM NOT_NAMED 1904-09-07 15:00:00 NR 14.3674 127.889 main 358 334 __________P___ -1 14.3674 127.889 7 17 277
1904248N10150 1904 32 WP MM NOT_NAMED 1904-09-07 16:00:00 NR 14.4000 127.600 main 334 288 __________O___ -1 14.4000 127.600 7 17 277
1904248N10150 1904 32 WP MM NOT_NAMED 1904-09-07 18:00:00 NR 14.4717 127.041 main 288 209 __________P___ -1 14.4717 127.041 7 16 277
1904248N10150 1904 32 WP MM NOT_NAMED 1904-09-07 21:00:00 NR 14.5610 126.223 main 209 133 __________P___ -1 14.5610 126.223 7 16 276
1904248N10150 1904 32 WP MM NOT_NAMED 1904-09-08 00:00:00 NR 14.6312 125.426 main 133 89 __________P___ -1 14.6312 125.426 7 15 275
1904248N10150 1904 32 WP MM NOT_NAMED 1904-09-08 03:00:00 NR 14.6851 124.653 main 89 79 __________P___ -1 14.6851 124.653 7 15 274
1904248N10150 1904 32 WP MM NOT_NAMED 1904-09-08 04:00:00 NR 14.7000 124.400 main 79 78 __________O___ -1 14.7000 124.400 7 15 274
1904248N10150 1904 32 WP MM NOT_NAMED 1904-09-08 06:00:00 NR 14.7298 123.905 main 81 74 __________P___ -1 14.7298 123.905 7 14 273
1904248N10150 1904 32 WP MM NOT_NAMED 1904-09-08 09:00:00 NR 14.7626 123.181 main 74 67 __________P___ -1 14.7626 123.181 7 14 272
1904248N10150 1904 32 WP MM NOT_NAMED 1904-09-08 12:00:00 NR 14.7840 122.466 main 67 10 __________P___ -1 14.7840 122.466 7 14 271
1904248N10150 1904 32 WP MM NOT_NAMED 1904-09-08 15:00:00 NR 14.7970 121.745 main 10 0 __________P___ -1 14.7970 121.745 7 14 271
1904248N10150 1904 32 WP MM NOT_NAMED 1904-09-08 16:00:00 NR 14.8000 121.500 main 0 0 __________O___ -1 14.8000 121.500 7 15 271
1904248N10150 1904 32 WP MM NOT_NAMED 1904-09-08 18:00:00 NR 14.8053 120.995 main 0 0 __________P___ -1 14.8053 120.995 7 15 270
1904248N10150 1904 32 WP MM NOT_NAMED 1904-09-08 21:00:00 NR 14.8073 120.224 main 0 0 __________P___ -1 14.8073 120.224 7 15 270
1904248N10150 1904 32 WP MM NOT_NAMED 1904-09-09 00:00:00 NR 14.8047 119.444 main 75 75 __________P___ -1 14.8047 119.444 7 15 270
1904248N10150 1904 32 WP MM NOT_NAMED 1904-09-09 03:00:00 NR 14.8010 118.661 main 145 154 __________P___ -1 14.8010 118.661 7 15 270
1904248N10150 1904 32 WP MM NOT_NAMED 1904-09-09 04:00:00 NR 14.8000 118.400 main 174 174 __________O___ -1 14.8000 118.400 7 15 270
1904248N10150 1904 32 WP MM NOT_NAMED 1904-09-09 06:00:00 NR 14.8025 117.865 main 225 235 __________P___ -1 14.8025 117.865 7 16 270
1904248N10150 1904 32 WP MM NOT_NAMED 1904-09-09 09:00:00 NR 14.8065 117.062 main 308 318 __________P___ -1 14.8065 117.062 7 15 270
1904248N10150 1904 32 WP MM NOT_NAMED 1904-09-09 12:00:00 NR 14.8079 116.278 main 388 398 __________P___ -1 14.8079 116.278 7 15 270
1904248N10150 1904 32 WP MM NOT_NAMED 1904-09-09 15:00:00 NR 14.8033 115.535 main 470 470 __________P___ -1 14.8033 115.535 7 14 270
1904248N10150 1904 32 WP MM NOT_NAMED 1904-09-09 16:00:00 NR 14.8000 115.300 main 490 490 __________O___ -1 14.8000 115.300 7 13 269
1904248N10150 1904 32 WP MM NOT_NAMED 1904-09-09 18:00:00 NR 14.7902 114.852 main 531 537 __________P___ -1 14.7902 114.852 7 12 268
1904248N10150 1904 32 WP MM NOT_NAMED 1904-09-09 21:00:00 NR 14.7690 114.228 main 537 472 __________P___ -1 14.7690 114.228 7 12 268
1904248N10150 1904 32 WP MM NOT_NAMED 1904-09-10 00:00:00 NR 14.7418 113.645 main 472 419 __________P___ -1 14.7418 113.645 7 11 267
1904248N10150 1904 32 WP MM NOT_NAMED 1904-09-10 03:00:00 NR 14.7108 113.084 main 419 398 __________P___ -1 14.7108 113.084 7 11 267
1904248N10150 1904 32 WP MM NOT_NAMED 1904-09-10 04:00:00 NR 14.7000 112.900 main 398 __________O___ -1 14.7000 112.900 7 11 266

Digital Typhoon Data and Search

About IBTrACS Database

This database is a web-friendly format of International Best Track Archive for Climate Stewardship (IBTrACS), a global best track data archive curated by NOAA dating back to 1842.

Updated: 2021-10-21